Time;durP1;ratioP1;P1;durP2;ratioP2;P2;SDS_P1;SDS_P2;PMS_P1;PMS_P2;Temp;Humidity;BMP_temperature;BMP_pressure;BME280_temperature;BME280_humidity;BME280_pressure;Samples;Min_cycle;Max_cycle;Signal;HPM_P1;HPM_P2
2021/01/04 00:02:01;;;;;;;23.60;16.95;;;1.70;99.90;;;;;;5085061;28;19912;-64
2021/01/04 00:04:48;;;;;;;26.77;17.30;;;1.60;99.90;;;;;;5088343;28;20605;-63
2021/01/04 00:08:01;;;;;;;23.95;17.88;;;1.60;99.90;;;;;;5086300;28;20032;-64
2021/01/04 00:10:50;;;;;;;25.08;17.45;;;1.50;99.90;;;;;;5027197;28;20036;-63
2021/01/04 00:13:29;;;;;;;27.83;19.52;;;1.60;99.90;;;;;;5083504;28;20027;-63
2021/01/04 00:16:02;;;;;;;28.17;19.17;;;1.40;99.90;;;;;;5088727;28;20084;-63
2021/01/04 00:18:49;;;;;;;32.33;21.52;;;1.60;99.90;;;;;;5087450;28;20050;-63
2021/01/04 00:21:38;;;;;;;29.20;20.30;;;1.70;99.90;;;;;;5088330;28;20400;-63
2021/01/04 00:24:40;;;;;;;28.45;19.63;;;1.50;99.90;;;;;;5084501;28;20089;-63
2021/01/04 00:27:43;;;;;;;25.70;18.65;;;1.40;99.90;;;;;;5049326;28;20048;-63
2021/01/04 00:30:24;;;;;;;27.95;19.50;;;1.30;99.90;;;;;;5067312;28;20048;-64
2021/01/04 00:32:50;;;;;;;30.13;20.75;;;1.40;99.90;;;;;;5083604;28;20411;-63
2021/01/04 00:35:19;;;;;;;32.75;19.80;;;1.50;99.90;;;;;;5090242;28;20024;-63
2021/01/04 00:38:20;;;;;;;32.13;20.55;;;1.50;99.90;;;;;;5079031;28;20549;-63
2021/01/04 00:40:45;;;;;;;34.83;22.20;;;1.50;99.90;;;;;;5072911;28;20421;-63
2021/01/04 00:43:22;;;;;;;28.48;19.80;;;1.20;99.90;;;;;;5078605;28;20032;-63
2021/01/04 00:45:48;;;;;;;27.45;19.55;;;1.30;99.90;;;;;;5087921;28;20031;-63
2021/01/04 00:48:43;;;;;;;27.55;18.55;;;1.20;99.90;;;;;;5085535;28;20032;-64
2021/01/04 00:51:27;;;;;;;29.80;20.83;;;1.20;99.90;;;;;;5072132;28;20058;-64
2021/01/04 00:53:53;;;;;;;31.77;20.45;;;1.30;99.90;;;;;;5085949;28;20480;-63
2021/01/04 00:56:47;;;;;;;32.35;20.08;;;1.20;99.90;;;;;;5084191;28;20032;-63
2021/01/04 00:59:25;;;;;;;37.00;24.02;;;1.40;99.90;;;;;;5087975;28;20079;-63
2021/01/04 01:02:02;;;;;;;37.85;23.35;;;1.00;99.90;;;;;;5086163;28;20050;-64
2021/01/04 01:04:33;;;;;;;35.42;22.50;;;0.70;99.90;;;;;;5088168;28;20602;-63
2021/01/04 01:07:10;;;;;;;32.70;21.63;;;1.00;99.90;;;;;;5087553;28;20028;-64
2021/01/04 01:09:41;;;;;;;35.05;22.10;;;1.10;99.90;;;;;;5085326;28;20415;-63
2021/01/04 01:12:10;;;;;;;32.42;20.92;;;1.40;99.90;;;;;;5083574;28;20061;-64
2021/01/04 01:15:04;;;;;;;39.05;23.42;;;1.40;99.90;;;;;;5089328;28;20028;-64
2021/01/04 01:17:45;;;;;;;35.85;22.13;;;1.30;99.90;;;;;;5079453;28;20048;-63
2021/01/04 01:20:16;;;;;;;36.50;22.67;;;1.50;99.90;;;;;;5078720;28;20028;-64
2021/01/04 01:22:43;;;;;;;29.90;20.75;;;1.40;99.90;;;;;;5078639;28;20499;-64
2021/01/04 01:25:17;;;;;;;34.85;22.45;;;1.50;99.90;;;;;;5096148;28;20404;-63
2021/01/04 01:28:07;;;;;;;29.23;19.35;;;1.30;99.90;;;;;;5085148;28;20090;-64
2021/01/04 01:31:14;;;;;;;28.00;19.40;;;1.30;99.90;;;;;;5094953;28;20032;-63
2021/01/04 01:34:02;;;;;;;29.27;18.67;;;1.30;99.90;;;;;;5092169;28;20032;-63
2021/01/04 01:36:45;;;;;;;25.50;18.05;;;1.30;99.90;;;;;;5089350;28;20040;-63
2021/01/04 01:39:26;;;;;;;29.45;18.85;;;1.40;99.90;;;;;;5090449;28;20111;-63
2021/01/04 01:42:19;;;;;;;27.42;18.50;;;1.30;99.90;;;;;;5084574;28;20028;-64
2021/01/04 01:45:19;;;;;;;28.98;20.13;;;1.50;99.90;;;;;;5079088;28;20024;-64
2021/01/04 01:48:00;;;;;;;27.90;18.65;;;1.40;99.90;;;;;;5089666;28;20480;-64
2021/01/04 01:50:35;;;;;;;24.55;17.80;;;1.40;99.90;;;;;;5081786;28;20024;-64
2021/01/04 01:53:16;;;;;;;22.52;16.33;;;1.40;99.90;;;;;;5086772;28;20028;-65
2021/01/04 01:56:03;;;;;;;24.15;16.85;;;1.00;99.90;;;;;;5081698;28;20061;-64
2021/01/04 01:58:44;;;;;;;32.38;19.02;;;1.20;99.90;;;;;;5087671;28;20058;-64
2021/01/04 02:01:34;;;;;;;25.40;17.83;;;1.10;99.90;;;;;;5091754;28;20063;-64
2021/01/04 02:04:04;;;;;;;23.98;17.48;;;1.10;99.90;;;;;;5086291;28;20399;-64
2021/01/04 02:06:48;;;;;;;24.20;17.48;;;1.20;99.90;;;;;;5089223;28;20033;-64
2021/01/04 02:09:28;;;;;;;24.48;16.85;;;1.20;99.90;;;;;;5095534;28;20028;-63
2021/01/04 02:12:22;;;;;;;23.90;17.20;;;1.30;99.90;;;;;;5092756;28;20028;-64
2021/01/04 02:14:55;;;;;;;24.38;17.02;;;1.40;99.90;;;;;;5095958;28;20027;-64
2021/01/04 02:17:29;;;;;;;25.52;16.15;;;1.30;99.90;;;;;;5089108;28;20470;-64
2021/01/04 02:20:29;;;;;;;23.55;15.88;;;1.30;99.90;;;;;;5095666;28;20050;-64
2021/01/04 02:23:19;;;;;;;24.17;15.98;;;1.30;99.90;;;;;;5090068;28;20524;-65
2021/01/04 02:25:49;;;;;;;23.63;15.15;;;1.50;99.90;;;;;;5093479;28;20090;-64
2021/01/04 02:28:22;;;;;;;23.13;17.00;;;1.50;99.90;;;;;;5091128;28;20020;-64
2021/01/04 02:30:48;;;;;;;24.02;15.82;;;1.50;99.90;;;;;;5093299;28;20032;-63
2021/01/04 02:33:15;;;;;;;24.95;16.33;;;1.50;99.90;;;;;;5091027;28;20031;-63
2021/01/04 02:35:42;;;;;;;22.38;15.68;;;1.50;99.90;;;;;;5088463;28;20020;-64
2021/01/04 02:38:09;;;;;;;21.98;15.18;;;1.50;99.90;;;;;;5086961;28;20095;-63
2021/01/04 02:40:35;;;;;;;20.67;15.10;;;1.60;99.90;;;;;;5090928;28;20016;-64
2021/01/04 02:43:01;;;;;;;21.10;15.30;;;1.50;99.90;;;;;;5087084;28;20032;-64
2021/01/04 02:45:29;;;;;;;22.17;16.38;;;1.60;99.90;;;;;;5091547;28;20400;-63
2021/01/04 02:48:15;;;;;;;21.05;16.08;;;1.60;99.90;;;;;;5088629;28;20036;-63
2021/01/04 02:50:50;;;;;;;20.40;15.68;;;1.40;99.90;;;;;;5090122;28;20590;-64
2021/01/04 02:53:58;;;;;;;21.52;14.68;;;1.50;99.90;;;;;;5087936;28;20028;-64
2021/01/04 02:56:43;;;;;;;20.38;15.10;;;1.60;99.90;;;;;;5055535;28;20040;-64
2021/01/04 02:59:42;;;;;;;19.30;15.23;;;1.40;99.90;;;;;;5085221;28;20551;-63
2021/01/04 03:02:20;;;;;;;21.65;15.27;;;1.20;99.90;;;;;;5086581;28;20032;-64
2021/01/04 03:04:48;;;;;;;22.42;16.05;;;1.30;99.90;;;;;;5087574;28;20070;-64
2021/01/04 03:07:16;;;;;;;24.52;17.13;;;1.10;99.90;;;;;;5085700;28;20446;-64
2021/01/04 03:09:44;;;;;;;23.15;15.73;;;1.20;99.90;;;;;;5090219;28;20020;-63
2021/01/04 03:12:15;;;;;;;20.08;15.57;;;1.10;99.90;;;;;;5088601;28;20035;-63
2021/01/04 03:14:49;;;;;;;21.70;14.95;;;1.10;99.90;;;;;;5091460;28;20038;-64
2021/01/04 03:17:15;;;;;;;23.50;15.25;;;1.40;99.90;;;;;;5064872;28;20110;-64
2021/01/04 03:19:45;;;;;;;22.00;15.90;;;1.40;99.90;;;;;;5090015;28;20020;-64
2021/01/04 03:22:15;;;;;;;22.23;15.82;;;1.20;99.90;;;;;;5083608;28;20064;-64
2021/01/04 03:24:47;;;;;;;21.88;14.77;;;1.30;99.90;;;;;;5088852;28;20016;-63
2021/01/04 03:27:18;;;;;;;21.98;14.75;;;1.30;99.90;;;;;;5089168;28;20055;-64
2021/01/04 03:29:43;;;;;;;22.17;15.25;;;1.40;99.90;;;;;;5090157;28;20054;-64
2021/01/04 03:32:09;;;;;;;24.63;16.40;;;1.50;99.90;;;;;;5088198;28;20389;-64
2021/01/04 03:34:34;;;;;;;22.60;15.40;;;1.50;99.90;;;;;;5089201;28;20028;-64
2021/01/04 03:37:00;;;;;;;19.92;14.98;;;1.40;99.90;;;;;;5087328;28;20028;-63
2021/01/04 03:39:28;;;;;;;20.55;15.40;;;1.40;99.90;;;;;;5088423;28;20027;-64
2021/01/04 03:41:58;;;;;;;21.27;15.43;;;1.40;99.90;;;;;;5089506;28;20169;-64
2021/01/04 03:44:26;;;;;;;20.45;14.82;;;1.50;99.90;;;;;;5090925;28;20607;-64
2021/01/04 03:46:53;;;;;;;18.95;14.80;;;1.60;99.90;;;;;;5084436;28;20111;-64
2021/01/04 03:49:19;;;;;;;20.75;15.15;;;1.60;99.90;;;;;;5086990;28;20012;-63
2021/01/04 03:51:56;;;;;;;20.67;15.55;;;1.60;99.90;;;;;;5085179;28;20021;-64
2021/01/04 03:54:22;;;;;;;20.15;15.20;;;1.40;99.90;;;;;;5090641;28;20024;-64
2021/01/04 03:56:48;;;;;;;17.00;14.15;;;1.50;99.90;;;;;;5086181;28;20034;-64
2021/01/04 03:59:14;;;;;;;21.85;15.90;;;1.60;99.90;;;;;;5085657;28;20015;-64
2021/01/04 04:01:55;;;;;;;19.70;14.65;;;1.70;99.90;;;;;;5087217;28;20503;-63
2021/01/04 04:04:23;;;;;;;21.52;14.50;;;1.40;99.90;;;;;;5085603;28;20031;-64
2021/01/04 04:06:49;;;;;;;19.40;14.85;;;1.40;99.90;;;;;;5086083;28;20036;-64
2021/01/04 04:09:17;;;;;;;23.27;15.77;;;1.40;99.90;;;;;;5084410;28;20024;-63
2021/01/04 04:11:43;;;;;;;20.92;15.45;;;1.50;99.90;;;;;;5086608;28;20392;-63
2021/01/04 04:14:09;;;;;;;19.27;14.82;;;1.50;99.90;;;;;;5090518;28;20028;-64
2021/01/04 04:16:35;;;;;;;18.27;14.07;;;1.40;99.90;;;;;;5085757;28;20043;-63
2021/01/04 04:19:00;;;;;;;25.30;15.98;;;1.60;99.90;;;;;;5090172;28;20107;-64
2021/01/04 04:21:26;;;;;;;19.35;14.43;;;1.70;99.90;;;;;;5088241;28;20055;-64
2021/01/04 04:23:52;;;;;;;19.67;14.98;;;1.60;99.90;;;;;;5081340;28;20032;-63
2021/01/04 04:26:20;;;;;;;20.02;15.00;;;1.70;99.90;;;;;;5088145;28;20069;-64
2021/01/04 04:28:46;;;;;;;22.88;15.98;;;1.60;99.90;;;;;;5089367;28;20012;-64
2021/01/04 04:31:13;;;;;;;20.73;15.95;;;1.50;99.90;;;;;;5082038;28;20143;-64
2021/01/04 04:33:40;;;;;;;21.85;15.77;;;1.50;99.90;;;;;;5088173;28;20522;-64
2021/01/04 04:36:06;;;;;;;22.08;16.00;;;1.40;99.90;;;;;;5069111;28;20028;-63
2021/01/04 04:38:32;;;;;;;22.48;15.40;;;1.60;99.90;;;;;;5086478;28;20024;-64
2021/01/04 04:40:57;;;;;;;23.92;15.82;;;1.40;99.90;;;;;;5086596;28;20016;-63
2021/01/04 04:43:29;;;;;;;20.08;15.55;;;1.50;99.90;;;;;;5085907;28;20024;-63
2021/01/04 04:45:56;;;;;;;22.75;15.85;;;1.50;99.90;;;;;;5087723;28;20028;-63
2021/01/04 04:48:44;;;;;;;21.23;15.00;;;1.50;99.90;;;;;;5081771;28;20088;-64
2021/01/04 04:51:20;;;;;;;20.63;14.57;;;1.50;99.90;;;;;;5072436;28;20024;-63
2021/01/04 04:53:54;;;;;;;;;;;1.50;99.90;;;;;;5074424;28;20476;-64
2021/01/04 04:56:47;;;;;;;19.50;14.35;;;1.50;99.90;;;;;;5084781;28;19923;-64
2021/01/04 04:59:37;;;;;;;18.52;14.07;;;1.40;99.90;;;;;;5070075;28;20607;-64
2021/01/04 05:02:12;;;;;;;20.25;13.93;;;1.20;99.90;;;;;;5086925;28;20032;-64
2021/01/04 05:04:50;;;;;;;20.15;14.23;;;1.10;99.90;;;;;;5089634;28;20031;-64
2021/01/04 05:07:28;;;;;;;17.63;13.15;;;1.10;99.90;;;;;;5082927;28;20034;-64
2021/01/04 05:10:04;;;;;;;19.58;14.50;;;1.30;99.90;;;;;;5089454;28;20529;-64
2021/01/04 05:12:40;;;;;;;20.95;14.50;;;1.10;99.90;;;;;;5082769;28;20020;-64
2021/01/04 05:15:21;;;;;;;16.65;12.65;;;1.10;99.90;;;;;;5082406;28;20536;-64
2021/01/04 05:18:14;;;;;;;19.63;14.40;;;1.20;99.90;;;;;;5082751;28;20047;-64
2021/01/04 05:21:02;;;;;;;19.90;14.20;;;1.10;99.90;;;;;;5087982;28;20024;-64
2021/01/04 05:23:52;;;;;;;19.73;14.43;;;1.20;99.90;;;;;;5085496;28;20373;-64
2021/01/04 05:26:38;;;;;;;24.52;15.02;;;1.30;99.90;;;;;;5085109;28;20024;-64
2021/01/04 05:29:36;;;;;;;;;;;1.30;99.90;;;;;;5083505;28;20056;-64
2021/01/04 05:32:37;;;;;;;24.95;14.82;;;1.10;99.90;;;;;;5045174;28;19916;-64
2021/01/04 05:35:06;;;;;;;23.23;15.60;;;1.00;99.90;;;;;;5079099;28;20673;-64
2021/01/04 05:37:41;;;;;;;19.73;14.52;;;1.00;99.90;;;;;;5082940;28;20024;-64
2021/01/04 05:40:25;;;;;;;20.48;14.45;;;1.10;99.90;;;;;;5079035;28;20020;-63
2021/01/04 05:43:32;;;;;;;20.40;14.40;;;1.10;99.90;;;;;;5083204;28;20462;-64
2021/01/04 05:46:07;;;;;;;21.43;14.40;;;1.10;99.90;;;;;;5083358;28;20025;-63
2021/01/04 05:48:46;;;;;;;17.83;13.32;;;1.10;99.90;;;;;;5086161;28;20266;-64
2021/01/04 05:51:22;;;;;;;18.73;13.27;;;1.00;99.90;;;;;;5087046;28;20119;-64
2021/01/04 05:53:48;;;;;;;19.52;13.98;;;1.10;99.90;;;;;;5071244;28;20533;-64
2021/01/04 05:56:26;;;;;;;19.38;13.30;;;1.00;99.90;;;;;;5080351;28;20046;-64
2021/01/04 05:58:53;;;;;;;16.70;13.73;;;1.00;99.90;;;;;;5079316;28;20068;-63
2021/01/04 06:01:21;;;;;;;18.77;13.68;;;1.00;99.90;;;;;;5084826;28;20138;-63
2021/01/04 06:03:59;;;;;;;21.00;14.48;;;0.90;99.90;;;;;;5078198;28;20032;-63
2021/01/04 06:06:29;;;;;;;18.38;13.10;;;0.80;99.90;;;;;;5076962;28;20021;-63
2021/01/04 06:09:13;;;;;;;20.02;14.10;;;0.80;99.90;;;;;;5088158;28;20114;-63
2021/01/04 06:12:18;;;;;;;16.48;12.98;;;0.60;99.90;;;;;;5087545;28;20162;-64
2021/01/04 06:14:44;;;;;;;19.52;12.98;;;0.50;99.90;;;;;;5090270;28;20108;-64
2021/01/04 06:17:37;;;;;;;16.73;12.48;;;0.40;99.90;;;;;;5089082;28;20508;-62
2021/01/04 06:20:12;;;;;;;16.42;12.95;;;0.40;99.90;;;;;;5090598;28;20020;-62
2021/01/04 06:22:38;;;;;;;21.88;13.80;;;0.60;99.90;;;;;;5084023;28;20040;-62
2021/01/04 06:25:06;;;;;;;17.95;14.18;;;0.50;99.90;;;;;;5084818;28;20049;-63
2021/01/04 06:27:47;;;;;;;19.13;13.93;;;0.50;99.90;;;;;;5085952;28;20035;-62
2021/01/04 06:30:26;;;;;;;18.58;13.70;;;0.50;99.90;;;;;;5084131;28;20047;-63
2021/01/04 06:32:52;;;;;;;18.75;13.57;;;0.30;99.90;;;;;;5085895;28;20583;-65
2021/01/04 06:35:24;;;;;;;17.05;13.68;;;0.40;99.90;;;;;;5091243;28;20063;-63
2021/01/04 06:37:50;;;;;;;22.95;14.70;;;0.50;99.90;;;;;;5086958;28;20164;-64
2021/01/04 06:40:44;;;;;;;16.58;13.02;;;0.50;99.90;;;;;;5091764;28;20071;-63
2021/01/04 06:43:12;;;;;;;16.17;13.23;;;0.60;99.90;;;;;;5085574;28;20125;-63
2021/01/04 06:46:15;;;;;;;18.58;13.35;;;0.60;99.90;;;;;;5084929;28;20032;-63
2021/01/04 06:49:03;;;;;;;17.67;14.25;;;0.50;99.90;;;;;;5079822;28;20041;-64
2021/01/04 06:51:53;;;;;;;17.13;12.93;;;0.70;99.90;;;;;;5087168;28;20024;-66
2021/01/04 06:54:48;;;;;;;18.67;12.70;;;1.70;99.90;;;;;;5088080;28;20404;-62
2021/01/04 06:57:19;;;;;;;17.90;13.50;;;1.10;99.90;;;;;;5086109;28;20028;-63
2021/01/04 07:00:30;;;;;;;19.27;14.23;;;0.80;99.90;;;;;;5088796;28;20036;-66
2021/01/04 07:03:14;;;;;;;29.60;14.38;;;0.80;99.90;;;;;;5081347;28;20512;-64
2021/01/04 07:06:05;;;;;;;22.15;14.93;;;0.90;99.90;;;;;;5088956;28;20024;-63
2021/01/04 07:08:58;;;;;;;19.33;14.73;;;0.90;99.90;;;;;;5088912;28;20012;-67
2021/01/04 07:11:45;;;;;;;20.95;14.65;;;0.90;99.90;;;;;;5086810;28;20559;-61
2021/01/04 07:14:20;;;;;;;20.45;15.25;;;0.90;99.90;;;;;;5089246;28;20024;-61
2021/01/04 07:17:00;;;;;;;20.52;15.32;;;0.80;99.90;;;;;;5086806;28;20044;-62
2021/01/04 07:19:54;;;;;;;20.92;15.20;;;0.80;99.90;;;;;;5086373;28;20024;-62
2021/01/04 07:22:22;;;;;;;21.60;15.70;;;0.80;99.90;;;;;;5084218;28;20131;-62
2021/01/04 07:25:23;;;;;;;34.08;16.77;;;0.80;99.90;;;;;;5089403;28;20420;-62
2021/01/04 07:27:54;;;;;;;20.55;14.23;;;0.90;99.90;;;;;;5082808;28;20047;-62
2021/01/04 07:30:42;;;;;;;27.70;15.45;;;1.00;99.90;;;;;;5090557;28;20016;-62
2021/01/04 07:33:25;;;;;;;23.83;15.80;;;1.10;99.90;;;;;;5088367;28;20020;-62
2021/01/04 07:36:12;;;;;;;21.52;14.57;;;1.00;99.90;;;;;;5088832;28;20028;-62
2021/01/04 07:39:06;;;;;;;22.00;15.38;;;1.00;99.90;;;;;;5083679;28;20107;-62
2021/01/04 07:41:59;;;;;;;25.77;16.05;;;1.00;99.90;;;;;;5080309;28;20024;-62
2021/01/04 07:44:59;;;;;;;29.42;18.15;;;0.90;99.90;;;;;;5084876;28;20496;-63
2021/01/04 07:47:48;;;;;;;30.10;18.95;;;0.80;99.90;;;;;;5084295;28;20562;-63
2021/01/04 07:50:49;;;;;;;29.58;19.17;;;0.70;99.90;;;;;;5081742;28;20028;-63
2021/01/04 07:53:30;;;;;;;29.30;19.17;;;0.80;99.90;;;;;;5042652;28;20059;-63
2021/01/04 07:56:01;;;;;;;28.42;16.63;;;0.70;99.90;;;;;;5072528;28;20529;-63
2021/01/04 07:59:20;;;;;;;25.25;16.30;;;0.70;99.90;;;;;;5080134;28;20052;-63
2021/01/04 08:02:07;;;;;;;32.67;17.60;;;0.70;99.90;;;;;;5084308;28;20035;-63
2021/01/04 08:05:10;;;;;;;31.00;17.42;;;0.80;99.90;;;;;;5087454;28;20032;-63
2021/01/04 08:07:52;;;;;;;27.23;16.85;;;0.80;99.90;;;;;;5083513;28;20102;-62
2021/01/04 08:10:43;;;;;;;24.05;16.67;;;0.60;99.90;;;;;;5066473;28;20032;-63
2021/01/04 08:13:27;;;;;;;26.80;15.35;;;0.70;99.90;;;;;;5085230;28;20032;-63
2021/01/04 08:16:03;;;;;;;30.13;16.40;;;0.60;99.90;;;;;;5086156;28;20413;-62
2021/01/04 08:18:30;;;;;;;27.75;16.45;;;0.60;99.90;;;;;;5083176;28;20034;-63
2021/01/04 08:21:24;;;;;;;25.85;15.88;;;0.70;99.90;;;;;;5088453;28;20073;-63
2021/01/04 08:24:14;;;;;;;28.92;15.93;;;0.80;99.90;;;;;;5086833;28;20099;-62
2021/01/04 08:27:17;;;;;;;28.17;15.65;;;0.70;99.90;;;;;;5084575;28;20034;-62
2021/01/04 08:29:48;;;;;;;22.17;14.68;;;0.80;99.90;;;;;;5087185;28;20028;-62
2021/01/04 08:32:42;;;;;;;31.00;16.02;;;0.90;99.90;;;;;;5082735;28;20500;-63
2021/01/04 08:35:16;;;;;;;26.08;15.52;;;1.00;99.90;;;;;;5088972;28;20020;-62
2021/01/04 08:37:45;;;;;;;26.15;16.23;;;1.20;99.90;;;;;;5084592;28;20028;-62
2021/01/04 08:40:27;;;;;;;22.38;14.73;;;1.40;99.90;;;;;;5089182;28;20020;-64
2021/01/04 08:43:29;;;;;;;31.77;15.10;;;1.70;99.90;;;;;;5083692;28;20051;-62
2021/01/04 08:45:54;;;;;;;25.83;14.70;;;1.60;99.90;;;;;;5084098;28;20028;-63
2021/01/04 08:48:36;;;;;;;29.15;14.73;;;1.60;99.90;;;;;;5085266;28;20028;-63
2021/01/04 08:51:30;;;;;;;32.03;16.83;;;1.50;99.90;;;;;;5084104;28;20090;-62
2021/01/04 08:54:11;;;;;;;28.40;16.55;;;1.50;99.90;;;;;;5080627;28;20085;-62
2021/01/04 08:56:42;;;;;;;27.65;15.27;;;1.80;99.90;;;;;;5075834;28;20503;-62
2021/01/04 08:59:14;;;;;;;19.42;13.38;;;1.90;99.90;;;;;;5088138;28;20031;-62
2021/01/04 09:01:53;;;;;;;20.35;15.40;;;2.20;99.90;;;;;;5082899;28;20125;-65
2021/01/04 09:04:26;;;;;;;30.45;17.52;;;2.00;99.90;;;;;;5086928;28;20052;-65
2021/01/04 09:07:16;;;;;;;24.08;16.17;;;2.10;99.90;;;;;;5086514;28;20122;-64
2021/01/04 09:09:49;;;;;;;21.92;13.35;;;1.80;99.90;;;;;;5087210;28;20509;-65
2021/01/04 09:12:19;;;;;;;17.58;12.55;;;2.00;99.90;;;;;;5083785;28;20641;-61
2021/01/04 09:14:45;;;;;;;14.10;11.98;;;2.40;99.90;;;;;;5078931;28;20009;-61
2021/01/04 09:17:34;;;;;;;17.52;11.25;;;2.00;99.90;;;;;;5083092;28;20055;-62
2021/01/04 09:20:08;;;;;;;16.70;11.35;;;2.10;99.90;;;;;;5086895;28;20032;-62
2021/01/04 09:22:34;;;;;;;16.17;12.57;;;2.40;99.90;;;;;;5083728;28;20091;-61
2021/01/04 09:25:00;;;;;;;16.60;13.15;;;2.20;99.90;;;;;;5070955;28;20426;-62
2021/01/04 09:27:37;;;;;;;18.90;13.43;;;2.40;99.90;;;;;;5077755;28;20028;-61
2021/01/04 09:30:08;;;;;;;15.82;13.52;;;2.60;99.90;;;;;;5089052;28;20028;-61
2021/01/04 09:32:40;;;;;;;24.02;14.43;;;2.70;99.90;;;;;;5085757;28;20024;-61
2021/01/04 09:35:19;;;;;;;17.52;13.45;;;2.70;99.90;;;;;;5086806;28;20052;-61
2021/01/04 09:37:44;;;;;;;24.80;14.60;;;3.00;99.90;;;;;;5085075;28;20029;-63
2021/01/04 09:40:18;;;;;;;23.42;15.18;;;2.50;99.90;;;;;;5072560;28;20024;-63
2021/01/04 09:42:44;;;;;;;18.13;13.85;;;3.00;99.90;;;;;;5081541;28;20059;-63
2021/01/04 09:45:19;;;;;;;17.48;13.85;;;2.90;99.90;;;;;;5087069;28;20020;-63
2021/01/04 09:47:53;;;;;;;22.17;14.87;;;2.70;99.90;;;;;;5089911;28;20106;-64
2021/01/04 09:50:33;;;;;;;21.17;13.15;;;3.00;99.90;;;;;;5087566;28;20346;-64
2021/01/04 09:53:20;;;;;;;17.33;13.50;;;3.30;99.90;;;;;;5087121;28;20040;-64
2021/01/04 09:55:47;;;;;;;17.70;12.50;;;3.30;99.90;;;;;;5090782;28;20515;-64
2021/01/04 09:58:18;;;;;;;22.05;13.18;;;3.10;99.90;;;;;;5088624;28;20422;-63
2021/01/04 10:00:45;;;;;;;16.10;11.48;;;3.20;99.90;;;;;;5091515;28;20464;-64
2021/01/04 10:03:29;;;;;;;13.48;11.80;;;3.60;99.90;;;;;;5091729;28;20036;-64
2021/01/04 10:05:55;;;;;;;13.35;11.57;;;3.10;99.90;;;;;;5091052;28;20550;-64
2021/01/04 10:08:26;;;;;;;13.25;11.82;;;3.30;99.90;;;;;;5085189;28;20025;-64
2021/01/04 10:10:51;;;;;;;12.68;10.35;;;3.50;99.90;;;;;;5091480;28;20477;-64
2021/01/04 10:13:21;;;;;;;16.58;10.75;;;3.60;99.90;;;;;;5085174;28;20062;-64
2021/01/04 10:15:50;;;;;;;13.77;11.60;;;3.30;99.90;;;;;;5091180;28;20407;-64
2021/01/04 10:18:37;;;;;;;21.17;13.15;;;3.50;99.90;;;;;;5083901;28;20074;-64
2021/01/04 10:21:06;;;;;;;13.55;10.70;;;3.50;99.90;;;;;;5090635;28;20020;-63
2021/01/04 10:23:43;;;;;;;17.20;12.15;;;3.80;99.90;;;;;;5080567;28;20115;-63
2021/01/04 10:26:11;;;;;;;18.52;11.85;;;4.00;99.90;;;;;;5090523;28;20021;-64
2021/01/04 10:28:38;;;;;;;13.73;11.25;;;3.90;99.90;;;;;;5083922;28;20024;-63
2021/01/04 10:31:26;;;;;;;13.23;10.82;;;4.30;99.90;;;;;;5090226;28;20081;-64
2021/01/04 10:34:11;;;;;;;13.45;10.98;;;4.70;99.90;;;;;;5090998;28;20016;-65
2021/01/04 10:36:38;;;;;;;13.70;10.70;;;4.70;99.90;;;;;;5086326;28;20051;-67
2021/01/04 10:39:18;;;;;;;13.52;11.30;;;4.80;99.90;;;;;;5083647;28;20076;-65
2021/01/04 10:41:44;;;;;;;13.57;11.30;;;5.20;99.90;;;;;;5079179;28;20032;-64
2021/01/04 10:44:20;;;;;;;14.65;11.27;;;5.10;99.90;;;;;;5085187;28;20114;-62
2021/01/04 10:46:55;;;;;;;;;;;4.60;99.90;;;;;;5091097;28;20020;-62
2021/01/04 10:49:27;;;;;;;12.90;11.13;;;4.50;99.90;;;;;;5092567;28;19955;-62
2021/01/04 10:51:54;;;;;;;15.75;10.63;;;4.80;99.90;;;;;;5090020;28;20020;-62
2021/01/04 10:54:34;;;;;;;12.25;10.57;;;4.90;99.90;;;;;;5078756;28;20029;-61
2021/01/04 10:57:12;;;;;;;11.25;9.73;;;4.60;99.90;;;;;;5080413;28;20050;-62
2021/01/04 10:59:55;;;;;;;10.48;9.50;;;4.50;99.90;;;;;;5090097;28;20712;-61
2021/01/04 11:02:21;;;;;;;12.10;10.32;;;4.50;99.90;;;;;;5088057;28;20070;-61
2021/01/04 11:04:53;;;;;;;12.27;10.00;;;4.70;99.90;;;;;;5089229;28;20044;-61
2021/01/04 11:07:29;;;;;;;12.20;10.13;;;4.70;99.90;;;;;;5081186;28;20039;-61
2021/01/04 11:09:55;;;;;;;;;;;5.10;99.90;;;;;;5088024;28;20053;-61
2021/01/04 11:12:26;;;;;;;10.73;9.73;;;4.90;99.90;;;;;;5085797;28;19978;-61
2021/01/04 11:15:02;;;;;;;12.07;10.52;;;5.00;99.90;;;;;;5086727;28;20593;-62
2021/01/04 11:17:36;;;;;;;11.57;10.38;;;5.00;99.90;;;;;;5083274;28;20139;-61
2021/01/04 11:20:10;;;;;;;13.35;9.75;;;5.00;99.90;;;;;;5083692;28;20064;-65
2021/01/04 11:22:36;;;;;;;12.52;9.82;;;5.70;99.90;;;;;;5083571;28;20032;-61
2021/01/04 11:25:04;;;;;;;10.20;9.20;;;6.30;99.90;;;;;;5088649;28;20055;-61
2021/01/04 11:27:30;;;;;;;11.88;9.80;;;5.80;99.90;;;;;;5088786;28;20024;-62
2021/01/04 11:29:55;;;;;;;10.43;9.48;;;6.10;99.90;;;;;;5088565;28;20020;-61
2021/01/04 11:32:23;;;;;;;9.90;8.85;;;5.80;99.90;;;;;;5088393;28;20062;-61
2021/01/04 11:34:51;;;;;;;10.00;8.93;;;5.30;99.90;;;;;;5087627;28;20019;-61
2021/01/04 11:37:20;;;;;;;11.50;8.95;;;5.80;99.90;;;;;;5085942;28;20110;-61
2021/01/04 11:39:46;;;;;;;10.38;9.30;;;6.40;99.90;;;;;;5091143;28;20104;-61
2021/01/04 11:42:11;;;;;;;10.35;9.35;;;7.10;99.90;;;;;;5085054;28;20123;-62
2021/01/04 11:44:38;;;;;;;10.43;9.15;;;7.10;99.90;;;;;;5088883;28;20034;-61
2021/01/04 11:47:04;;;;;;;11.73;9.20;;;7.30;99.90;;;;;;5085724;28;20033;-62
2021/01/04 11:49:30;;;;;;;10.73;9.38;;;7.40;99.90;;;;;;5086423;28;20020;-62
2021/01/04 11:51:56;;;;;;;10.85;9.23;;;7.40;99.90;;;;;;5086740;28;20080;-62
2021/01/04 11:54:22;;;;;;;12.50;8.75;;;7.90;99.90;;;;;;5084127;28;20568;-62
2021/01/04 11:56:49;;;;;;;9.55;8.60;;;7.80;99.90;;;;;;5086291;28;20036;-62
2021/01/04 11:59:15;;;;;;;11.85;8.93;;;8.20;99.90;;;;;;5082456;28;20040;-61
2021/01/04 12:01:41;;;;;;;11.82;9.95;;;8.30;99.90;;;;;;5085058;28;20618;-66
2021/01/04 12:04:07;;;;;;;10.80;9.52;;;8.30;99.90;;;;;;5082541;28;20111;-65
2021/01/04 12:06:33;;;;;;;12.98;10.73;;;8.90;99.90;;;;;;5085575;28;20023;-61
2021/01/04 12:08:59;;;;;;;13.45;10.27;;;8.30;99.90;;;;;;5087726;28;20024;-61
2021/01/04 12:11:29;;;;;;;12.57;10.95;;;8.10;99.90;;;;;;5082558;28;20267;-61
2021/01/04 12:13:55;;;;;;;12.48;11.18;;;8.80;99.90;;;;;;5089792;28;20083;-61
2021/01/04 12:16:21;;;;;;;17.40;11.10;;;8.80;99.90;;;;;;5075913;28;20088;-61
2021/01/04 12:18:46;;;;;;;13.60;11.32;;;8.90;99.90;;;;;;5080611;28;20086;-62
2021/01/04 12:21:13;;;;;;;14.50;11.07;;;9.10;99.90;;;;;;5084439;28;20043;-63
2021/01/04 12:23:40;;;;;;;14.75;12.95;;;9.20;99.90;;;;;;5081506;28;20027;-62
2021/01/04 12:26:05;;;;;;;16.85;12.48;;;9.00;99.90;;;;;;5088284;28;20048;-62
2021/01/04 12:28:31;;;;;;;13.23;10.93;;;8.70;99.90;;;;;;5085988;28;20469;-63
2021/01/04 12:30:56;;;;;;;16.50;11.75;;;9.10;99.90;;;;;;5086649;28;20556;-62
2021/01/04 12:33:22;;;;;;;16.27;11.40;;;9.70;99.90;;;;;;5082076;28;20186;-64
2021/01/04 12:35:48;;;;;;;11.18;10.07;;;10.00;99.90;;;;;;5077414;28;20036;-64
2021/01/04 12:38:13;;;;;;;9.35;8.07;;;10.10;99.90;;;;;;5085016;28;20030;-63
2021/01/04 12:40:39;;;;;;;8.93;8.07;;;10.70;99.90;;;;;;5076449;28;20081;-62
2021/01/04 12:43:05;;;;;;;9.07;8.18;;;9.80;99.90;;;;;;5077945;28;20086;-64
2021/01/04 12:45:31;;;;;;;8.27;7.30;;;9.70;99.90;;;;;;5072259;28;20091;-63
2021/01/04 12:47:57;;;;;;;8.38;7.68;;;10.00;99.90;;;;;;5083716;28;20157;-63
2021/01/04 12:50:23;;;;;;;7.55;6.93;;;10.60;99.90;;;;;;5078318;28;20037;-63
2021/01/04 12:52:49;;;;;;;7.93;7.22;;;10.70;99.90;;;;;;5087173;28;20024;-64
2021/01/04 12:55:17;;;;;;;7.07;6.22;;;10.20;99.90;;;;;;5089425;28;20428;-63
2021/01/04 12:57:46;;;;;;;6.55;6.05;;;10.30;99.90;;;;;;5082043;28;20531;-63
2021/01/04 13:00:13;;;;;;;6.60;6.00;;;10.30;99.90;;;;;;5077248;28;20024;-63
2021/01/04 13:02:39;;;;;;;8.48;6.40;;;9.70;99.90;;;;;;5079498;28;20142;-64
2021/01/04 13:05:05;;;;;;;9.20;8.38;;;9.90;99.90;;;;;;5089643;28;20133;-64
2021/01/04 13:07:31;;;;;;;8.57;7.78;;;10.20;99.90;;;;;;5080620;28;20465;-64
2021/01/04 13:09:56;;;;;;;6.78;6.28;;;10.20;99.90;;;;;;5087545;28;20061;-63
2021/01/04 13:12:22;;;;;;;5.60;5.20;;;10.50;99.90;;;;;;5087041;28;20085;-64
2021/01/04 13:14:49;;;;;;;8.00;7.18;;;11.00;99.90;;;;;;5088177;28;20404;-64
2021/01/04 13:17:15;;;;;;;10.15;9.15;;;10.90;99.90;;;;;;5086171;28;20051;-64
2021/01/04 13:19:41;;;;;;;8.35;7.55;;;10.30;99.90;;;;;;5087546;28;20142;-63
2021/01/04 13:22:07;;;;;;;7.85;6.93;;;10.30;99.90;;;;;;5085448;28;20115;-64
2021/01/04 13:24:33;;;;;;;7.53;6.93;;;10.20;99.90;;;;;;5085091;28;20583;-64
2021/01/04 13:26:59;;;;;;;7.65;6.97;;;9.60;99.90;;;;;;5081657;28;20037;-64